Proud — 9HWA9 — position and weather

sailwx.info

Track history (hours):
 
Tides and Currents Weather Stations Pressure Air Temp Water Temp Dewpoint Dewpoint Depression Visibility Wind Speed Wind Dir Waves Ship Positions

Proud

Last reported at 2016-Jul-24 19:26 UTC. Time now 2016-Jul-26 21:46 UTC.
Position S 33°51' E 018°03'.

Length 292 m; draft 10.1 m.

Type: Cargo ship. MMSI: 249619000.

Date/timePositionNaut miles runAvg speedWind from/ knotsBaromVisibWave heightAir tempDewpointWater temp
2016-Jul-24 19:26S 33°51' E 018°03'1112.2
2016-Jul-24 18:33S 33°53' E 018°15'4 4.1
2016-Jul-24 17:33S 33°56' E 018°12'  
2016-Jul-21 02:25S 31°07' E 034°58'3612.3
2016-Jul-20 23:31S 30°53' E 035°37'1311.7
2016-Jul-20 22:22S 30°49' E 035°51'1512.0
2016-Jul-20 21:08S 30°44' E 036°08'712.0
2016-Jul-20 20:31S 30°41' E 036°16'1212.3
2016-Jul-20 19:30S 30°35' E 036°28'1511.9
2016-Jul-20 18:13S 30°30' E 036°45'912.8
2016-Jul-20 17:33S 30°27' E 036°54'1312.7
2016-Jul-20 16:33S 30°22' E 037°08'1212.3
2016-Jul-20 15:33S 30°19' E 037°21'  
2016-Jul-16 11:05S 20°27' E 056°58'611.8
2016-Jul-16 10:34S 20°22' E 057°02'1111.4
2016-Jul-16 09:33S 20°14' E 057°10'1212.1
2016-Jul-16 08:34S 20°10' E 057°22'3 3.0
2016-Jul-16 07:31S 20°09' E 057°26'0 0.0
2016-Jul-16 06:31S 20°09' E 057°26'0 0.0
2016-Jul-16 04:31S 20°09' E 057°26'0 0.1
2016-Jul-16 03:31S 20°09' E 057°26'0 0.0
2016-Jul-16 02:31S 20°09' E 057°26'0 0.0
2016-Jul-16 01:31S 20°09' E 057°26'0 0.1
2016-Jul-16 00:31S 20°09' E 057°26'0 0.0
2016-Jul-15 23:31S 20°09' E 057°26'0 0.0
2016-Jul-15 22:31S 20°09' E 057°26'0 0.0
2016-Jul-15 21:28S 20°09' E 057°26'0 0.1
2016-Jul-15 20:31S 20°09' E 057°26'0 0.0
2016-Jul-15 19:31S 20°09' E 057°26'0 0.0
2016-Jul-15 18:31S 20°09' E 057°26'0 0.1
2016-Jul-15 17:31S 20°09' E 057°26'0 0.0
2016-Jul-15 16:31S 20°09' E 057°26'0 0.0
2016-Jul-15 15:31S 20°09' E 057°26'0 0.0
2016-Jul-15 14:31S 20°09' E 057°26'0 0.0
2016-Jul-15 13:31S 20°09' E 057°26'0 0.1
2016-Jul-15 12:31S 20°09' E 057°26'0 0.0
2016-Jul-15 11:31S 20°09' E 057°26'0 0.0
2016-Jul-15 10:31S 20°09' E 057°26'0 0.0
2016-Jul-15 09:31S 20°09' E 057°26'0 0.2
2016-Jul-15 08:33S 20°09' E 057°26'2 2.3
2016-Jul-15 07:34S 20°08' E 057°28'1 1.4
2016-Jul-15 06:34S 20°07' E 057°28'6 5.7
2016-Jul-15 05:33S 20°01' E 057°28'1212.5
2016-Jul-15 04:33S 19°51' E 057°35'1312.6
2016-Jul-15 03:34S 19°41' E 057°45'1312.9
2016-Jul-15 02:33S 19°34' E 057°56'  
Track history (hours):
 
Tides and Currents Weather Stations Pressure Air Temp Water Temp Dewpoint Dewpoint Depression Visibility Wind Speed Wind Dir Waves Ship Positions

Proud

Last reported at 2016-Jul-24 19:26 UTC. Time now 2016-Jul-26 21:46 UTC.
Position S 33°51' E 018°03'.

Length 292 m; draft 10.1 m.

Type: Cargo ship. MMSI: 249619000.

Date/timePositionNaut miles runAvg speedWind from/ knotsBaromVisibWave heightAir tempDewpointWater temp
2016-Jul-24 19:26S 33°51' E 018°03'1112.2
2016-Jul-24 18:33S 33°53' E 018°15'4 4.1
2016-Jul-24 17:33S 33°56' E 018°12'  
2016-Jul-21 02:25S 31°07' E 034°58'3612.3
2016-Jul-20 23:31S 30°53' E 035°37'1311.7
2016-Jul-20 22:22S 30°49' E 035°51'1512.0
2016-Jul-20 21:08S 30°44' E 036°08'712.0
2016-Jul-20 20:31S 30°41' E 036°16'1212.3
2016-Jul-20 19:30S 30°35' E 036°28'1511.9
2016-Jul-20 18:13S 30°30' E 036°45'912.8
2016-Jul-20 17:33S 30°27' E 036°54'1312.7
2016-Jul-20 16:33S 30°22' E 037°08'1212.3
2016-Jul-20 15:33S 30°19' E 037°21'  
2016-Jul-16 11:05S 20°27' E 056°58'611.8
2016-Jul-16 10:34S 20°22' E 057°02'1111.4
2016-Jul-16 09:33S 20°14' E 057°10'1212.1
2016-Jul-16 08:34S 20°10' E 057°22'3 3.0
2016-Jul-16 07:31S 20°09' E 057°26'0 0.0
2016-Jul-16 06:31S 20°09' E 057°26'0 0.0
2016-Jul-16 04:31S 20°09' E 057°26'0 0.1
2016-Jul-16 03:31S 20°09' E 057°26'0 0.0
2016-Jul-16 02:31S 20°09' E 057°26'0 0.0
2016-Jul-16 01:31S 20°09' E 057°26'0 0.1
2016-Jul-16 00:31S 20°09' E 057°26'0 0.0
2016-Jul-15 23:31S 20°09' E 057°26'0 0.0
2016-Jul-15 22:31S 20°09' E 057°26'0 0.0
2016-Jul-15 21:28S 20°09' E 057°26'0 0.1
2016-Jul-15 20:31S 20°09' E 057°26'0 0.0
2016-Jul-15 19:31S 20°09' E 057°26'0 0.0
2016-Jul-15 18:31S 20°09' E 057°26'0 0.1
2016-Jul-15 17:31S 20°09' E 057°26'0 0.0
2016-Jul-15 16:31S 20°09' E 057°26'0 0.0
2016-Jul-15 15:31S 20°09' E 057°26'0 0.0
2016-Jul-15 14:31S 20°09' E 057°26'0 0.0
2016-Jul-15 13:31S 20°09' E 057°26'0 0.1
2016-Jul-15 12:31S 20°09' E 057°26'0 0.0
2016-Jul-15 11:31S 20°09' E 057°26'0 0.0
2016-Jul-15 10:31S 20°09' E 057°26'0 0.0
2016-Jul-15 09:31S 20°09' E 057°26'0 0.2
2016-Jul-15 08:33S 20°09' E 057°26'2 2.3
2016-Jul-15 07:34S 20°08' E 057°28'1 1.4
2016-Jul-15 06:34S 20°07' E 057°28'6 5.7
2016-Jul-15 05:33S 20°01' E 057°28'1212.5
2016-Jul-15 04:33S 19°51' E 057°35'1312.6
2016-Jul-15 03:34S 19°41' E 057°45'1312.9
2016-Jul-15 02:33S 19°34' E 057°56'  

Dump ship's entire track history